createdAt,value
2023-05-12T00:00:03.135Z,89.29
2023-05-12T00:02:29.647Z,89.14
2023-05-12T00:04:56.637Z,89.27
2023-05-12T00:07:23.342Z,89.09
2023-05-12T00:09:49.775Z,89.24
2023-05-12T00:12:16.560Z,88.99
2023-05-12T00:14:42.970Z,89.11
2023-05-12T00:17:09.956Z,88.86
2023-05-12T00:19:36.519Z,88.99
2023-05-12T00:22:03.092Z,89.01
2023-05-12T00:24:30.533Z,88.81
2023-05-12T00:26:57.116Z,89.04
2023-05-12T00:29:23.658Z,88.93
2023-05-12T00:31:52.410Z,89.25
2023-05-12T00:34:18.947Z,89.18
2023-05-12T00:36:45.331Z,89.20
2023-05-12T00:39:12.178Z,89.08
2023-05-12T00:41:38.690Z,89.28
2023-05-12T00:44:05.490Z,89.00
2023-05-12T00:46:32.001Z,89.23
2023-05-12T00:48:58.940Z,89.21
2023-05-12T00:51:26.227Z,89.48
2023-05-12T00:53:53.147Z,89.32
2023-05-12T00:56:20.062Z,89.38
2023-05-12T00:58:47.057Z,89.10
2023-05-12T01:01:13.751Z,88.64
2023-05-12T01:03:40.323Z,88.42
2023-05-12T01:06:19.740Z,89.13
2023-05-12T01:08:47.392Z,87.53
2023-05-12T01:11:13.824Z,87.43
2023-05-12T01:13:41.255Z,87.30
2023-05-12T01:16:12.191Z,87.36
2023-05-12T01:18:41.365Z,86.58
2023-05-12T01:21:08.357Z,86.04
2023-05-12T01:23:39.783Z,86.07
2023-05-12T01:26:10.351Z,85.87
2023-05-12T01:28:37.719Z,84.35
2023-05-12T01:31:06.355Z,84.08
2023-05-12T01:33:33.999Z,83.36
2023-05-12T01:36:00.698Z,83.27
2023-05-12T01:38:27.452Z,82.72
2023-05-12T01:40:53.838Z,82.05
2023-05-12T01:43:22.160Z,81.64
2023-05-12T01:45:48.934Z,81.08
2023-05-12T01:48:15.386Z,80.90
2023-05-12T01:50:42.362Z,80.53
2023-05-12T01:53:10.509Z,79.88
2023-05-12T01:55:37.366Z,79.98
2023-05-12T01:58:04.103Z,79.83
2023-05-12T02:00:30.557Z,79.67
2023-05-12T02:02:57.210Z,79.72
2023-05-12T02:05:23.871Z,79.79
2023-05-12T02:07:50.508Z,79.28
2023-05-12T02:10:17.840Z,79.28
2023-05-12T02:12:44.444Z,79.15
2023-05-12T02:15:11.130Z,79.11
2023-05-12T02:17:37.566Z,79.21
2023-05-12T02:20:05.386Z,78.72
2023-05-12T02:22:31.797Z,78.96
2023-05-12T02:24:58.354Z,78.67
2023-05-12T02:27:24.760Z,79.05
2023-05-12T02:29:51.255Z,78.89
2023-05-12T02:32:17.792Z,79.35
2023-05-12T02:34:44.249Z,79.26
2023-05-12T02:37:10.722Z,79.43
2023-05-12T02:39:37.104Z,79.26
2023-05-12T02:42:03.659Z,79.23
2023-05-12T02:44:30.296Z,79.28
2023-05-12T02:46:57.963Z,79.48
2023-05-12T02:49:24.379Z,79.05
2023-05-12T02:51:50.840Z,78.94
2023-05-12T02:54:17.259Z,79.11
2023-05-12T02:56:43.706Z,78.95
2023-05-12T02:59:10.159Z,79.04
2023-05-12T03:01:36.646Z,79.46
2023-05-12T03:04:03.294Z,79.06
2023-05-12T03:06:30.356Z,78.85
2023-05-12T03:08:56.808Z,78.98
2023-05-12T03:11:23.274Z,78.87
2023-05-12T03:13:49.720Z,79.35
2023-05-12T03:16:19.459Z,79.20
2023-05-12T03:18:46.396Z,79.20
2023-05-12T03:21:13.120Z,79.23
2023-05-12T03:23:39.692Z,79.17
2023-05-12T03:26:06.269Z,79.16
2023-05-12T03:28:32.728Z,79.16
2023-05-12T03:30:59.243Z,79.47
2023-05-12T03:33:25.830Z,79.65
2023-05-12T03:35:52.285Z,79.47
2023-05-12T03:38:18.703Z,79.86
2023-05-12T03:40:45.244Z,79.60
2023-05-12T03:43:11.657Z,79.81
2023-05-12T03:45:38.126Z,79.58
2023-05-12T03:48:06.947Z,79.71
2023-05-12T03:50:33.432Z,79.78
2023-05-12T03:53:00.679Z,79.85
2023-05-12T03:55:27.084Z,79.56
2023-05-12T03:57:53.466Z,79.98
2023-05-12T04:00:20.485Z,80.00
2023-05-12T04:02:47.420Z,79.84
2023-05-12T04:05:14.214Z,79.79
2023-05-12T04:07:40.829Z,80.11
2023-05-12T04:10:08.304Z,80.05
2023-05-12T04:12:34.680Z,79.60
2023-05-12T04:15:01.519Z,79.82
2023-05-12T04:17:28.062Z,80.08
2023-05-12T04:19:54.532Z,80.03
2023-05-12T04:22:22.829Z,79.89
2023-05-12T04:24:50.716Z,79.95
2023-05-12T04:27:17.216Z,79.50
2023-05-12T04:29:43.733Z,79.67
2023-05-12T04:32:10.413Z,79.49
2023-05-12T04:34:37.108Z,79.38
2023-05-12T04:37:03.632Z,79.53
2023-05-12T04:39:30.296Z,79.12
2023-05-12T04:42:00.577Z,79.89
2023-05-12T04:44:26.908Z,79.38
2023-05-12T04:46:56.211Z,79.09
2023-05-12T04:49:22.823Z,78.99
2023-05-12T04:51:49.345Z,78.92
2023-05-12T04:54:15.871Z,78.47
2023-05-12T04:56:42.295Z,78.79
2023-05-12T04:59:08.926Z,79.12
2023-05-12T05:01:35.421Z,78.79
2023-05-12T05:04:01.885Z,78.10
2023-05-12T05:06:28.387Z,78.65
2023-05-12T05:08:55.841Z,78.54
2023-05-12T05:11:22.724Z,78.85
2023-05-12T05:13:49.375Z,79.37
2023-05-12T05:16:15.892Z,79.34
2023-05-12T05:18:46.248Z,79.23
2023-05-12T05:21:16.376Z,79.28
2023-05-12T05:23:43.004Z,79.01
2023-05-12T05:26:09.630Z,78.34
2023-05-12T05:28:37.257Z,78.42
2023-05-12T05:31:03.745Z,78.06
2023-05-12T05:33:30.380Z,78.02
2023-05-12T05:35:57.216Z,78.09
2023-05-12T05:38:23.721Z,77.72
2023-05-12T05:40:53.673Z,77.30
2023-05-12T05:43:20.906Z,76.06
2023-05-12T05:45:49.662Z,75.97
2023-05-12T05:48:16.305Z,74.72
2023-05-12T05:50:42.886Z,73.08
2023-05-12T05:53:12.474Z,73.33
2023-05-12T05:55:38.927Z,72.75
2023-05-12T05:58:05.734Z,74.17
2023-05-12T06:00:32.118Z,74.13
2023-05-12T06:02:58.699Z,75.06
2023-05-12T06:05:25.412Z,72.69
2023-05-12T06:07:51.826Z,71.05
2023-05-12T06:10:18.631Z,70.40
2023-05-12T06:12:45.908Z,70.13
2023-05-12T06:15:12.449Z,71.31
2023-05-12T06:17:39.535Z,68.44
2023-05-12T06:20:06.673Z,68.63
2023-05-12T06:22:34.672Z,67.04
2023-05-12T06:25:01.428Z,65.55
2023-05-12T06:27:27.827Z,64.28
2023-05-12T06:29:54.279Z,61.66
2023-05-12T06:32:20.845Z,61.78
2023-05-12T06:34:47.288Z,62.77
2023-05-12T06:37:13.696Z,60.81
2023-05-12T06:39:40.373Z,60.06
2023-05-12T06:42:06.824Z,57.76
2023-05-12T06:44:33.358Z,57.87
2023-05-12T06:46:59.914Z,57.63
2023-05-12T06:49:26.370Z,56.49
2023-05-12T06:51:52.902Z,56.26
2023-05-12T06:54:19.497Z,54.06
2023-05-12T06:56:46.326Z,54.68
2023-05-12T06:59:13.307Z,54.73
2023-05-12T07:01:40.754Z,52.76
2023-05-12T07:04:07.996Z,52.50
2023-05-12T07:06:41.942Z,51.43
2023-05-12T07:09:08.489Z,52.65
2023-05-12T07:11:35.022Z,51.16
2023-05-12T07:14:01.495Z,51.50
2023-05-12T07:16:27.903Z,49.70
2023-05-12T07:18:54.543Z,48.96
2023-05-12T07:21:21.822Z,49.02
2023-05-12T07:23:48.858Z,49.64
2023-05-12T07:26:17.090Z,48.86
2023-05-12T07:28:43.531Z,50.13
2023-05-12T07:31:10.559Z,49.65
2023-05-12T07:33:37.207Z,47.80
2023-05-12T07:36:04.809Z,49.00
2023-05-12T07:38:32.088Z,50.27
2023-05-12T07:40:59.335Z,47.43
2023-05-12T07:43:26.126Z,47.54
2023-05-12T07:45:52.828Z,48.08
2023-05-12T07:48:19.225Z,46.94
2023-05-12T07:50:45.720Z,46.63
2023-05-12T07:53:12.227Z,45.58
2023-05-12T07:55:38.808Z,46.23
2023-05-12T07:58:05.245Z,45.88
2023-05-12T08:00:31.872Z,43.53
2023-05-12T08:02:58.550Z,44.97
2023-05-12T08:05:25.244Z,43.38
2023-05-12T08:07:52.243Z,42.10
2023-05-12T08:10:21.372Z,44.03
2023-05-12T08:12:48.110Z,43.12
2023-05-12T08:15:14.705Z,42.57
2023-05-12T08:17:41.916Z,42.98
2023-05-12T08:20:09.111Z,43.06
2023-05-12T08:22:35.640Z,42.36
2023-05-12T08:25:02.235Z,42.94
2023-05-12T08:27:29.578Z,42.67
2023-05-12T08:29:56.046Z,42.87
2023-05-12T08:32:22.642Z,40.85
2023-05-12T08:34:49.152Z,39.91
2023-05-12T08:37:15.603Z,40.72
2023-05-12T08:39:42.108Z,40.26
2023-05-12T08:42:23.671Z,41.50
2023-05-12T08:44:50.351Z,39.09
2023-05-12T08:47:18.824Z,40.37
2023-05-12T08:49:51.743Z,37.50
2023-05-12T08:52:22.120Z,38.37
2023-05-12T08:54:56.132Z,38.69
2023-05-12T08:57:24.167Z,37.69
2023-05-12T08:59:54.012Z,37.64
2023-05-12T09:02:23.219Z,38.21
2023-05-12T09:04:51.268Z,39.04
2023-05-12T09:07:24.337Z,39.61
2023-05-12T09:09:56.832Z,38.68
2023-05-12T09:12:25.605Z,39.65
2023-05-12T09:15:03.962Z,38.51
2023-05-12T09:17:30.614Z,37.18
2023-05-12T09:19:57.149Z,37.36
2023-05-12T09:22:36.194Z,37.31
2023-05-12T09:25:21.616Z,38.92
2023-05-12T09:27:52.535Z,35.42
2023-05-12T09:30:29.624Z,35.51
2023-05-12T09:33:07.493Z,36.21
2023-05-12T09:35:39.251Z,33.33
2023-05-12T09:38:09.748Z,32.70
2023-05-12T09:40:36.386Z,31.60
2023-05-12T09:43:05.471Z,29.93
2023-05-12T09:45:36.462Z,31.52
2023-05-12T09:48:11.428Z,30.79
2023-05-12T09:50:50.385Z,31.45
2023-05-12T09:53:18.338Z,30.00
2023-05-12T09:55:46.593Z,28.17
2023-05-12T09:58:17.954Z,27.69
2023-05-12T10:01:02.389Z,27.78
2023-05-12T10:03:34.282Z,27.18
2023-05-12T10:06:04.178Z,27.07
2023-05-12T10:08:40.678Z,27.06
2023-05-12T10:11:08.116Z,25.41
2023-05-12T10:13:35.347Z,26.40
2023-05-12T10:16:03.148Z,27.20
2023-05-12T10:18:31.477Z,26.98
2023-05-12T10:20:58.080Z,26.00
2023-05-12T10:23:26.745Z,26.28
2023-05-12T10:25:58.572Z,25.12
2023-05-12T10:28:25.304Z,26.63
2023-05-12T10:30:52.850Z,25.75
2023-05-12T10:33:19.565Z,25.34
2023-05-12T10:35:48.559Z,26.12
2023-05-12T10:38:21.844Z,24.98
2023-05-12T10:40:52.511Z,25.57
2023-05-12T10:43:23.830Z,27.17
2023-05-12T10:46:12.369Z,27.05
2023-05-12T10:49:07.481Z,26.36
2023-05-12T10:51:46.142Z,26.64
2023-05-12T10:54:19.721Z,28.35
2023-05-12T10:56:47.369Z,25.93
2023-05-12T10:59:14.893Z,27.86
2023-05-12T11:01:43.105Z,28.43
2023-05-12T11:04:15.615Z,28.62
2023-05-12T11:06:45.025Z,27.96
2023-05-12T11:09:13.336Z,29.18
2023-05-12T11:11:40.566Z,28.34
2023-05-12T11:14:08.353Z,29.03
2023-05-12T11:16:41.199Z,28.84
2023-05-12T11:19:07.791Z,30.17
2023-05-12T11:21:34.501Z,30.41
2023-05-12T11:24:02.121Z,30.02
2023-05-12T11:26:29.697Z,29.34
2023-05-12T11:28:59.703Z,29.68
2023-05-12T11:31:26.573Z,30.45
2023-05-12T11:34:12.793Z,31.09
2023-05-12T11:36:44.296Z,31.05
2023-05-12T11:39:32.585Z,31.36
2023-05-12T11:42:12.214Z,30.56
2023-05-12T11:44:47.756Z,28.94
2023-05-12T11:47:15.672Z,28.14
2023-05-12T11:49:53.023Z,26.17
2023-05-12T11:52:21.334Z,25.10
2023-05-12T11:54:51.595Z,26.12
2023-05-12T11:57:32.490Z,25.74
2023-05-12T12:00:01.322Z,26.73
2023-05-12T12:02:28.378Z,25.11
2023-05-12T12:04:55.193Z,25.55
2023-05-12T12:07:39.807Z,27.40
2023-05-12T12:10:17.217Z,26.61
2023-05-12T12:12:44.633Z,26.24
2023-05-12T12:15:12.032Z,25.07
2023-05-12T12:17:39.834Z,26.04
2023-05-12T12:20:08.142Z,26.55
2023-05-12T12:22:35.309Z,26.39
2023-05-12T12:25:03.253Z,25.13
2023-05-12T12:27:29.947Z,23.45
2023-05-12T12:29:56.479Z,23.67
2023-05-12T12:32:23.025Z,23.50
2023-05-12T12:34:50.172Z,23.50
2023-05-12T12:37:17.132Z,23.21
2023-05-12T12:39:43.714Z,24.54
2023-05-12T12:42:10.171Z,25.80
2023-05-12T12:44:36.606Z,25.12
2023-05-12T12:47:03.406Z,25.58
2023-05-12T12:49:29.810Z,24.71
2023-05-12T12:51:56.321Z,24.78
2023-05-12T12:54:23.006Z,25.28
2023-05-12T12:56:49.425Z,24.70
2023-05-12T12:59:15.907Z,25.09
2023-05-12T13:01:43.067Z,24.36
2023-05-12T13:04:09.596Z,23.00
2023-05-12T13:06:36.663Z,23.25
2023-05-12T13:09:03.888Z,24.44
2023-05-12T13:11:30.517Z,23.77
2023-05-12T13:13:56.904Z,23.90
2023-05-12T13:16:23.414Z,23.64
2023-05-12T13:18:49.895Z,24.23
2023-05-12T13:21:17.904Z,24.20
2023-05-12T13:23:44.300Z,25.56
2023-05-12T13:26:10.713Z,25.33
2023-05-12T13:28:37.151Z,25.22
2023-05-12T13:31:03.715Z,25.93
2023-05-12T13:33:30.187Z,24.62
2023-05-12T13:35:57.038Z,24.68
2023-05-12T13:38:23.464Z,24.90
2023-05-12T13:40:50.208Z,24.15
2023-05-12T13:43:16.739Z,23.84
2023-05-12T13:45:43.182Z,23.57
2023-05-12T13:48:09.672Z,22.90
2023-05-12T13:50:36.207Z,23.57
2023-05-12T13:53:02.605Z,23.11
2023-05-12T13:55:29.061Z,22.39
2023-05-12T13:57:55.498Z,23.36
2023-05-12T14:00:22.146Z,22.95
2023-05-12T14:02:48.840Z,23.56
2023-05-12T14:05:15.599Z,23.22
2023-05-12T14:07:42.620Z,22.62
2023-05-12T14:10:10.002Z,23.71
2023-05-12T14:12:36.983Z,23.58
2023-05-12T14:15:29.128Z,22.52
2023-05-12T14:17:50.542Z,23.23
2023-05-12T14:20:17.069Z,23.15
2023-05-12T14:22:43.522Z,23.37
2023-05-12T14:25:10.052Z,23.51
2023-05-12T14:27:36.553Z,23.02
2023-05-12T14:30:03.614Z,24.07
2023-05-12T14:32:30.232Z,24.01
2023-05-12T14:34:57.138Z,24.11
2023-05-12T14:37:23.567Z,25.85
2023-05-12T14:39:49.956Z,24.60
2023-05-12T14:42:17.844Z,25.85
2023-05-12T14:44:44.261Z,23.89
2023-05-12T14:47:10.685Z,24.10
2023-05-12T14:49:37.206Z,23.80
2023-05-12T14:52:03.725Z,24.04
2023-05-12T14:54:30.392Z,24.42
2023-05-12T14:56:56.846Z,24.58
2023-05-12T14:59:23.253Z,25.99
2023-05-12T15:01:50.070Z,24.69
2023-05-12T15:04:16.731Z,25.46
2023-05-12T15:06:43.149Z,25.67
2023-05-12T15:09:09.657Z,25.60
2023-05-12T15:11:37.028Z,25.29
2023-05-12T15:14:04.611Z,25.04
2023-05-12T15:16:33.055Z,25.43
2023-05-12T15:18:59.703Z,25.41
2023-05-12T15:21:26.346Z,25.30
2023-05-12T15:23:52.790Z,25.44
2023-05-12T15:26:31.911Z,25.50
2023-05-12T15:28:59.775Z,26.26
2023-05-12T15:31:28.916Z,26.11
2023-05-12T15:33:56.852Z,26.57
2023-05-12T15:36:23.286Z,26.35
2023-05-12T15:38:49.736Z,25.77
2023-05-12T15:41:16.202Z,25.95
2023-05-12T15:43:42.636Z,25.84
2023-05-12T15:46:11.053Z,26.18
2023-05-12T15:48:37.690Z,26.73
2023-05-12T15:51:04.351Z,26.31
2023-05-12T15:53:31.454Z,26.54
2023-05-12T15:56:02.551Z,27.29
2023-05-12T15:58:29.373Z,27.41
2023-05-12T16:00:55.905Z,28.78
2023-05-12T16:03:26.427Z,28.82
2023-05-12T16:05:53.373Z,29.36
2023-05-12T16:08:29.171Z,29.48
2023-05-12T16:10:55.779Z,28.97
2023-05-12T16:13:22.604Z,29.16
2023-05-12T16:15:52.006Z,28.56
2023-05-12T16:18:18.917Z,28.21
2023-05-12T16:20:49.857Z,28.15
2023-05-12T16:23:16.680Z,28.29
2023-05-12T16:25:45.629Z,28.65
2023-05-12T16:28:12.466Z,28.98
2023-05-12T16:30:39.247Z,29.25
2023-05-12T16:33:07.291Z,29.86
2023-05-12T16:35:34.171Z,29.38
2023-05-12T16:38:01.148Z,29.66
2023-05-12T16:40:27.824Z,30.84
2023-05-12T16:42:55.099Z,30.91
2023-05-12T16:45:23.224Z,29.27
2023-05-12T16:50:17.523Z,29.63
2023-05-12T16:52:44.249Z,29.52
2023-05-12T16:55:11.128Z,29.20
2023-05-12T16:57:37.646Z,29.76
2023-05-12T17:00:06.672Z,29.77
2023-05-12T17:02:33.413Z,29.11
2023-05-12T17:05:02.797Z,29.83
2023-05-12T17:07:29.167Z,29.57
2023-05-12T17:09:55.543Z,30.04
2023-05-12T17:12:22.281Z,30.31
2023-05-12T17:14:59.321Z,30.42
2023-05-12T17:17:33.356Z,29.99
2023-05-12T17:20:00.725Z,29.96
2023-05-12T17:22:27.950Z,30.06
2023-05-12T17:24:54.333Z,29.97
2023-05-12T17:27:20.758Z,30.54
2023-05-12T17:29:47.475Z,29.80
2023-05-12T17:32:13.868Z,29.68
2023-05-12T17:34:40.292Z,30.91
2023-05-12T17:37:06.828Z,30.79
2023-05-12T17:39:34.168Z,29.96
2023-05-12T17:42:00.659Z,29.75
2023-05-12T17:44:27.059Z,29.95
2023-05-12T17:46:53.607Z,28.76
2023-05-12T17:49:20.050Z,28.74
2023-05-12T17:51:49.404Z,27.88
2023-05-12T17:54:16.213Z,27.85
2023-05-12T17:56:44.661Z,27.79
2023-05-12T17:59:12.311Z,29.05
2023-05-12T18:01:38.933Z,28.21
2023-05-12T18:04:05.500Z,29.39
2023-05-12T18:06:32.698Z,29.38
2023-05-12T18:08:59.127Z,29.61
2023-05-12T18:11:26.103Z,30.19
2023-05-12T18:13:53.679Z,30.16
2023-05-12T18:16:28.678Z,30.48
2023-05-12T18:18:56.295Z,31.14
2023-05-12T18:21:22.809Z,31.12
2023-05-12T18:23:49.242Z,32.09
2023-05-12T18:26:15.729Z,32.80
2023-05-12T18:28:42.316Z,32.96
2023-05-12T18:31:16.077Z,32.35
2023-05-12T18:33:45.741Z,33.25
2023-05-12T18:36:12.866Z,33.58
2023-05-12T18:38:39.422Z,34.39
2023-05-12T18:41:06.142Z,34.78
2023-05-12T18:43:32.724Z,35.54
2023-05-12T18:45:59.230Z,35.79
2023-05-12T18:48:25.713Z,36.96
2023-05-12T18:50:52.468Z,37.79
2023-05-12T18:53:18.917Z,37.98
2023-05-12T18:55:45.564Z,38.54
2023-05-12T18:58:12.116Z,39.00
2023-05-12T19:00:39.541Z,39.87
2023-05-12T19:03:06.071Z,40.45
2023-05-12T19:05:32.594Z,40.52
2023-05-12T19:07:58.988Z,41.25
2023-05-12T19:10:26.715Z,41.62
2023-05-12T19:12:53.202Z,41.90
2023-05-12T19:15:21.966Z,43.13
2023-05-12T19:17:49.335Z,43.54
2023-05-12T19:20:16.463Z,43.27
2023-05-12T19:22:44.190Z,44.09
2023-05-12T19:25:10.930Z,44.56
2023-05-12T19:27:37.541Z,45.23
2023-05-12T19:30:05.451Z,45.66
2023-05-12T19:32:32.853Z,46.03
2023-05-12T19:35:01.013Z,46.01
2023-05-12T19:37:27.545Z,46.49
2023-05-12T19:39:54.060Z,46.88
2023-05-12T19:42:22.655Z,47.21
2023-05-12T19:44:52.185Z,47.69
2023-05-12T19:47:19.012Z,48.36
2023-05-12T19:49:45.622Z,48.25
2023-05-12T19:52:12.275Z,48.76
2023-05-12T19:54:38.891Z,48.82
2023-05-12T19:57:05.633Z,49.65
2023-05-12T19:59:32.292Z,49.45
2023-05-12T20:01:58.929Z,49.95
2023-05-12T20:04:26.032Z,50.03
2023-05-12T20:06:54.516Z,50.62
2023-05-12T20:09:23.185Z,50.62
2023-05-12T20:11:49.604Z,50.81
2023-05-12T20:14:16.535Z,51.20
2023-05-12T20:16:43.351Z,51.63
2023-05-12T20:19:10.008Z,51.86
2023-05-12T20:21:36.766Z,52.46
2023-05-12T20:24:03.937Z,52.62
2023-05-12T20:26:30.649Z,53.14
2023-05-12T20:28:59.636Z,53.10
2023-05-12T20:31:27.373Z,53.48
2023-05-12T20:33:58.007Z,53.45
2023-05-12T20:36:24.716Z,53.68
2023-05-12T20:38:51.578Z,54.42
2023-05-12T20:41:18.759Z,54.81
2023-05-12T20:43:45.940Z,55.08
2023-05-12T20:46:12.731Z,55.55
2023-05-12T20:48:39.501Z,55.78
2023-05-12T20:51:15.569Z,55.69
2023-05-12T20:53:42.327Z,56.55
2023-05-12T20:56:08.969Z,56.73
2023-05-12T20:58:35.867Z,56.79
2023-05-12T21:01:02.441Z,57.26
2023-05-12T21:03:29.327Z,57.52
2023-05-12T21:05:56.118Z,57.69
2023-05-12T21:08:22.960Z,58.00
2023-05-12T21:10:49.581Z,58.22
2023-05-12T21:13:16.774Z,58.49
2023-05-12T21:15:43.234Z,58.58
2023-05-12T21:18:10.132Z,59.09
2023-05-12T21:20:36.833Z,59.53
2023-05-12T21:23:03.297Z,59.02
2023-05-12T21:25:30.019Z,59.67
2023-05-12T21:27:56.714Z,59.46
2023-05-12T21:30:23.382Z,59.31
2023-05-12T21:32:50.678Z,59.56
2023-05-12T21:35:17.298Z,59.97
2023-05-12T21:37:43.932Z,60.23
2023-05-12T21:40:10.862Z,60.22
2023-05-12T21:42:37.490Z,60.29
2023-05-12T21:45:04.561Z,60.45
2023-05-12T21:47:31.173Z,61.18
2023-05-12T21:49:58.075Z,61.11
2023-05-12T21:52:24.990Z,61.31
2023-05-12T21:54:51.599Z,61.43
2023-05-12T21:57:18.503Z,61.43
2023-05-12T21:59:44.994Z,61.68
2023-05-12T22:02:11.510Z,61.90
2023-05-12T22:04:38.175Z,62.40
2023-05-12T22:07:04.972Z,62.37
2023-05-12T22:09:31.662Z,62.44
2023-05-12T22:11:58.267Z,62.58
2023-05-12T22:14:24.876Z,63.11
2023-05-12T22:16:51.395Z,63.08
2023-05-12T22:19:18.321Z,63.42
2023-05-12T22:21:45.750Z,63.54
2023-05-12T22:24:12.268Z,63.51
2023-05-12T22:26:38.755Z,63.70
2023-05-12T22:29:05.196Z,64.43
2023-05-12T22:31:31.814Z,64.38
2023-05-12T22:33:58.267Z,64.76
2023-05-12T22:36:24.831Z,64.71
2023-05-12T22:38:51.249Z,64.86
2023-05-12T22:41:17.654Z,65.76
2023-05-12T22:43:44.094Z,65.08
2023-05-12T22:46:10.562Z,65.86
2023-05-12T22:48:39.503Z,66.02
2023-05-12T22:51:06.658Z,66.17
2023-05-12T22:53:35.640Z,66.79
2023-05-12T22:56:03.315Z,66.88
2023-05-12T22:58:29.961Z,67.28
2023-05-12T23:00:56.522Z,67.31
2023-05-12T23:03:22.969Z,67.93
2023-05-12T23:05:49.645Z,68.11
2023-05-12T23:08:16.503Z,68.32
2023-05-12T23:10:42.900Z,68.92
2023-05-12T23:13:09.510Z,68.87
2023-05-12T23:15:36.040Z,68.91
2023-05-12T23:18:02.591Z,69.03
2023-05-12T23:20:29.034Z,69.56
2023-05-12T23:22:56.597Z,69.86
2023-05-12T23:25:23.137Z,70.09
2023-05-12T23:27:49.628Z,69.91
2023-05-12T23:30:16.268Z,70.19
2023-05-12T23:32:42.941Z,70.42
2023-05-12T23:35:10.112Z,70.45
2023-05-12T23:37:36.644Z,70.75
2023-05-12T23:40:03.991Z,71.25
2023-05-12T23:42:30.591Z,71.55
2023-05-12T23:44:57.068Z,71.95
2023-05-12T23:47:23.553Z,71.78
2023-05-12T23:49:49.968Z,71.76
2023-05-12T23:52:19.223Z,72.37
2023-05-12T23:54:45.641Z,72.53
2023-05-12T23:57:12.061Z,72.92
2023-05-12T23:59:38.588Z,72.76
